Allouez, MI

11:18 PM EST on January 30, 2015 (GMT -0500)
Hubbell (Near Hubbell Haven) | Change Station
CLOSE
Current Station
Personal Weather Station
Location: Hubbell, MI
Elevation: 730 ft
Nearby Weather Stations

Elev 730 ft 47.18 °N, 88.43 °W | Updated 0 second ago

Overcast
Overcast
12.4 °F
Feels Like 12 °F
N
0.1
Wind Variable Wind from ESE
Gusts 2.5 mph

Today
High -- | Low -- °F
--% Chance of Precip.
Yesterday
High -- | Low -- °F
Precip. -- in
8:22 AM 5:52 PM
Waxing Gibbous, 87% visible
Pressure 30.15 in
Visibility 1.8 miles
Clouds Overcast 2000 ft
Windchill 12 °F
Dew Point 6 °F
Humidity 74%
Rainfall 0.00 in
Snow Depth Not available.
UV 0 out of 12
Pollen .10 out of 12
Air Quality Not available.
Flu Activity Not available.
SPECI KCMX 310404Z AUTO 22005KT 1 3/4SM -SN OVC020 M10/M14 A3015 RMK AO2 P0000 T11001139

More Conditions Fewer Conditions

Pressure 30.15 in
Visibility 1.8 miles
Clouds Overcast 2000 ft
Windchill 12 °F
Dew Point 6 °F
Humidity 74%
Rainfall 0.00 in
Snow Depth Not available.
UV 0 out of 12
Pollen .10 out of 12
Air Quality Not available.
Flu Activity Not available.
SPECI KCMX 310404Z AUTO 22005KT 1 3/4SM -SN OVC020 M10/M14 A3015 RMK AO2 P0000 T11001139

More Conditions Fewer Conditions

10-Day Weather Forecast

Almanac

Astronomy

Jan. 30, 2015 Rise Set
Actual Time
Civil Twilight
Nautical Twilight
Astronomical Twilight
Moon
Length of Visible Light
Length of Day
Tomorrow will be .
, % of the Moon is Illuminated

Today's Extremes

State Highs State Lows

Community

WunderPhotos

Upload Photos

1,791,999 photos uploaded!

WunderBlogs® & News

Nearby

Air Quality

  Air Quality AQ Index Pollutant
Not available.

Snow Depth

Station Depth Elevation

Earthquake Activity

City Distance Mag. Time & Date
Minimum magnitude displayed is 2.5.

Coastal Water Temperatures

Place Temperature

Nearby Weather Stations